Time;durP1;ratioP1;P1;durP2;ratioP2;P2;SDS_P1;SDS_P2;PMS_P1;PMS_P2;Temp;Humidity;BMP_temperature;BMP_pressure;BME280_temperature;BME280_humidity;BME280_pressure;Samples;Min_cycle;Max_cycle;Signal;HPM_P1;HPM_P2
2022/02/21 00:00:57;;;;;;;1.67;1.00;;;11.30;92.70;;;;;;4969727;28;20472;-88
2022/02/21 00:03:24;;;;;;;3.87;1.40;;;11.30;92.60;;;;;;4955488;29;20460;-88
2022/02/21 00:05:51;;;;;;;2.63;1.00;;;11.30;92.60;;;;;;4959465;28;20826;-88
2022/02/21 00:08:19;;;;;;;1.63;0.90;;;11.30;92.60;;;;;;4974949;28;20446;-88
2022/02/21 00:10:46;;;;;;;1.83;0.97;;;11.40;92.50;;;;;;4964355;28;20453;-89
2022/02/21 00:13:14;;;;;;;3.67;1.00;;;11.30;92.50;;;;;;4969882;29;20451;-88
2022/02/21 00:15:41;;;;;;;2.00;0.80;;;11.40;92.50;;;;;;4977591;28;20470;-88
2022/02/21 00:18:07;;;;;;;3.27;1.00;;;11.40;92.30;;;;;;4974196;28;20487;-88
2022/02/21 00:20:34;;;;;;;2.60;0.93;;;11.40;92.30;;;;;;4976549;29;20439;-89
2022/02/21 00:23:01;;;;;;;5.73;1.33;;;11.50;92.20;;;;;;4974274;29;20804;-89
2022/02/21 00:25:28;;;;;;;1.70;1.00;;;11.50;92.20;;;;;;4977262;28;20490;-89
2022/02/21 00:27:55;;;;;;;2.40;1.23;;;11.40;92.10;;;;;;4968194;28;20952;-89
2022/02/21 00:30:23;;;;;;;2.80;1.07;;;11.50;92.10;;;;;;4965497;28;20461;-89
2022/02/21 00:32:50;;;;;;;3.00;0.87;;;11.50;92.00;;;;;;4979417;28;20462;-89
2022/02/21 00:35:17;;;;;;;2.00;1.10;;;11.50;92.00;;;;;;4972722;28;20847;-89
2022/02/21 00:37:44;;;;;;;2.40;1.03;;;11.50;92.00;;;;;;4973412;28;20857;-89
2022/02/21 00:40:11;;;;;;;1.07;0.70;;;11.50;92.70;;;;;;4958300;29;20529;-89
2022/02/21 00:42:38;;;;;;;2.70;0.80;;;11.40;92.50;;;;;;4967116;28;20826;-89
2022/02/21 00:45:07;;;;;;;2.07;1.20;;;11.40;92.70;;;;;;4977464;28;20557;-88
2022/02/21 00:47:35;;;;;;;3.90;1.20;;;11.40;92.50;;;;;;4962736;28;20449;-89
2022/02/21 00:50:03;;;;;;;3.83;1.33;;;11.40;92.70;;;;;;4975535;28;20460;-89
2022/02/21 00:52:30;;;;;;;5.40;1.37;;;11.30;93.00;;;;;;4984980;28;20478;-89
2022/02/21 00:54:57;;;;;;;6.13;1.50;;;11.30;93.30;;;;;;4980844;28;20529;-88
2022/02/21 00:57:23;;;;;;;1.37;0.90;;;11.30;93.50;;;;;;4974686;28;20480;-89
2022/02/21 00:59:50;;;;;;;2.17;1.10;;;11.20;93.90;;;;;;4968339;28;20459;-90
2022/02/21 01:02:17;;;;;;;4.10;1.27;;;11.10;94.00;;;;;;4982400;28;20444;-86
2022/02/21 01:04:45;;;;;;;2.03;1.63;;;11.10;94.30;;;;;;4960287;28;20476;-86
2022/02/21 01:07:12;;;;;;;2.73;1.70;;;11.10;94.40;;;;;;4970329;28;20448;-89
2022/02/21 01:09:38;;;;;;;4.30;1.10;;;11.10;94.70;;;;;;4987996;28;20459;-90
2022/02/21 01:12:06;;;;;;;2.80;1.10;;;11.10;94.70;;;;;;4981673;28;20450;-89
2022/02/21 01:14:33;;;;;;;3.90;1.10;;;11.10;94.30;;;;;;4967488;28;20473;-89
2022/02/21 01:16:59;;;;;;;2.00;1.10;;;11.20;94.10;;;;;;4958097;29;20455;-87
2022/02/21 01:19:26;;;;;;;4.83;1.83;;;11.10;94.40;;;;;;4975466;28;20458;-88
2022/02/21 01:21:54;;;;;;;2.77;1.07;;;11.10;94.40;;;;;;4989230;28;20460;-88
2022/02/21 01:24:21;;;;;;;1.43;1.33;;;11.10;94.50;;;;;;4998402;28;20551;-88
2022/02/21 01:26:49;;;;;;;1.80;1.20;;;11.10;94.40;;;;;;4971636;28;20789;-88
2022/02/21 01:29:16;;;;;;;3.37;1.20;;;11.10;94.50;;;;;;4960336;29;20441;-88
2022/02/21 01:31:42;;;;;;;6.80;1.33;;;11.10;94.60;;;;;;4977081;28;20460;-88
2022/02/21 01:34:09;;;;;;;4.60;1.23;;;11.00;94.50;;;;;;4972976;28;20468;-88
2022/02/21 01:36:36;;;;;;;3.27;1.20;;;11.00;94.60;;;;;;4969320;29;20448;-88
2022/02/21 01:39:04;;;;;;;6.80;1.70;;;11.00;94.70;;;;;;4980863;28;20476;-88
2022/02/21 01:41:31;;;;;;;1.83;0.97;;;10.90;94.90;;;;;;4964205;28;20445;-88
2022/02/21 01:44:06;;;;;;;1.37;1.10;;;10.90;94.80;;;;;;4959249;29;20477;-88
2022/02/21 01:46:33;;;;;;;3.30;1.40;;;11.00;94.80;;;;;;4959911;28;20467;-88
2022/02/21 01:48:59;;;;;;;4.30;1.50;;;10.90;94.90;;;;;;4958506;28;20441;-88
2022/02/21 01:51:27;;;;;;;2.90;1.40;;;10.90;94.90;;;;;;4964366;28;20823;-87
2022/02/21 01:53:55;;;;;;;2.80;1.00;;;10.90;95.00;;;;;;4988814;28;20472;-88
2022/02/21 01:56:24;;;;;;;2.23;1.30;;;10.90;95.10;;;;;;4997619;28;20448;-88
2022/02/21 01:58:51;;;;;;;14.27;2.00;;;11.00;94.80;;;;;;4966011;28;20488;-88
2022/02/21 02:01:18;;;;;;;3.30;1.33;;;11.00;94.80;;;;;;4962548;28;20811;-88
2022/02/21 02:03:46;;;;;;;3.10;1.67;;;11.00;94.80;;;;;;4986224;28;20468;-88
2022/02/21 02:06:13;;;;;;;2.40;1.27;;;11.00;94.60;;;;;;4976498;28;20507;-88
2022/02/21 02:08:40;;;;;;;1.57;0.80;;;11.00;94.50;;;;;;4971121;28;20452;-87
2022/02/21 02:11:07;;;;;;;2.53;0.97;;;11.00;94.40;;;;;;4958914;28;20444;-88
2022/02/21 02:13:35;;;;;;;3.00;0.93;;;11.00;94.50;;;;;;4976959;28;20460;-88
2022/02/21 02:16:02;;;;;;;4.83;1.63;;;11.00;94.50;;;;;;4999318;28;20436;-87
2022/02/21 02:18:28;;;;;;;1.07;0.70;;;10.90;94.40;;;;;;4980014;28;20483;-88
2022/02/21 02:20:55;;;;;;;4.40;0.63;;;11.00;94.30;;;;;;4984669;28;20424;-87
2022/02/21 02:23:24;;;;;;;2.47;0.93;;;11.00;94.30;;;;;;4989442;28;20451;-88
2022/02/21 02:25:50;;;;;;;4.60;0.87;;;11.00;94.20;;;;;;4971041;28;20967;-88
2022/02/21 02:28:17;;;;;;;2.50;1.30;;;10.90;94.20;;;;;;4957039;29;20453;-88
2022/02/21 02:30:44;;;;;;;3.10;1.07;;;10.90;94.20;;;;;;4969067;28;20443;-88
2022/02/21 02:33:10;;;;;;;2.33;2.13;;;10.90;94.30;;;;;;4957161;29;20868;-88
2022/02/21 02:35:37;;;;;;;1.20;0.93;;;11.00;94.50;;;;;;4957882;28;20457;-88
2022/02/21 02:38:04;;;;;;;3.53;1.43;;;10.90;95.10;;;;;;4963712;28;20858;-88
2022/02/21 02:40:33;;;;;;;2.07;1.03;;;10.80;95.30;;;;;;4978377;28;20455;-87
2022/02/21 02:43:01;;;;;;;1.43;1.00;;;10.70;95.60;;;;;;4983348;28;20471;-87
2022/02/21 02:45:28;;;;;;;0.77;0.70;;;10.70;95.60;;;;;;4964253;28;20472;-88
2022/02/21 02:47:55;;;;;;;2.83;1.17;;;10.60;96.50;;;;;;4980269;28;20467;-87
2022/02/21 02:50:21;;;;;;;4.40;1.37;;;10.40;97.60;;;;;;4978219;28;20465;-88
2022/02/21 02:52:48;;;;;;;3.23;0.90;;;10.20;98.30;;;;;;4958411;29;20444;-88
2022/02/21 02:55:15;;;;;;;5.63;0.90;;;10.20;98.30;;;;;;4956402;28;20480;-88
2022/02/21 02:57:43;;;;;;;0.97;0.70;;;10.20;98.50;;;;;;4959722;28;20463;-88
2022/02/21 03:00:13;;;;;;;1.50;0.70;;;10.10;98.90;;;;;;4975493;28;20448;-88
2022/02/21 03:02:40;;;;;;;1.00;0.60;;;10.10;98.90;;;;;;4966040;28;20952;-88
2022/02/21 03:05:07;;;;;;;1.80;0.83;;;10.00;99.50;;;;;;4958763;29;20512;-88
2022/02/21 03:07:34;;;;;;;2.73;0.93;;;10.10;99.20;;;;;;4975409;28;20463;-88
2022/02/21 03:10:00;;;;;;;1.67;0.80;;;10.10;98.70;;;;;;4986118;28;20445;-88
2022/02/21 03:12:27;;;;;;;3.40;1.17;;;10.20;98.70;;;;;;4975804;28;20814;-88
2022/02/21 03:14:57;;;;;;;1.43;0.70;;;10.20;98.40;;;;;;4969589;28;20552;-88
2022/02/21 03:17:23;;;;;;;1.33;0.77;;;10.30;98.10;;;;;;4974510;28;20456;-88
2022/02/21 03:19:50;;;;;;;1.97;0.77;;;10.40;97.60;;;;;;4960184;29;20857;-89
2022/02/21 03:22:17;;;;;;;1.10;0.60;;;10.30;97.60;;;;;;4977998;29;20501;-88
2022/02/21 03:24:44;;;;;;;2.83;1.00;;;10.30;97.60;;;;;;4974372;29;20481;-88
2022/02/21 03:27:10;;;;;;;2.23;0.67;;;10.40;97.00;;;;;;4977952;28;20463;-87
2022/02/21 03:29:37;;;;;;;0.70;0.50;;;10.40;96.70;;;;;;4968663;28;20451;-88
2022/02/21 03:32:07;;;;;;;2.73;0.60;;;10.60;96.50;;;;;;4961377;29;20474;-88
2022/02/21 03:34:33;;;;;;;1.43;0.77;;;10.60;96.50;;;;;;4968028;29;20477;-88
2022/02/21 03:37:00;;;;;;;1.93;1.27;;;10.70;96.70;;;;;;4987291;28;20497;-88
2022/02/21 03:39:27;;;;;;;2.70;1.23;;;10.70;97.00;;;;;;4997473;28;20986;-88
2022/02/21 03:41:54;;;;;;;2.93;0.70;;;10.70;97.70;;;;;;4995284;28;20438;-88
2022/02/21 03:44:21;;;;;;;2.20;1.00;;;9.60;96.00;;;;;;4998482;28;20472;-88
2022/02/21 03:46:47;;;;;;;3.13;1.57;;;8.40;98.30;;;;;;4984760;28;20453;-88
2022/02/21 03:49:16;;;;;;;4.17;1.13;;;7.30;99.60;;;;;;4973741;28;20452;-88
2022/02/21 03:51:43;;;;;;;1.77;0.70;;;6.70;99.90;;;;;;4977981;28;20512;-87
2022/02/21 03:54:10;;;;;;;3.57;0.80;;;6.20;99.90;;;;;;4981930;28;20479;-88
2022/02/21 03:56:37;;;;;;;1.80;0.63;;;6.00;99.90;;;;;;4982757;28;20511;-89
2022/02/21 03:59:04;;;;;;;1.93;0.80;;;5.90;99.90;;;;;;4978665;28;20507;-88
2022/02/21 04:01:31;;;;;;;0.90;0.80;;;5.80;99.90;;;;;;4964329;29;20468;-89
2022/02/21 04:03:58;;;;;;;2.30;1.10;;;5.70;99.90;;;;;;4977933;28;20475;-89
2022/02/21 04:06:26;;;;;;;1.70;0.73;;;5.60;99.90;;;;;;4982990;28;20455;-88
2022/02/21 04:08:53;;;;;;;1.90;0.70;;;5.50;99.90;;;;;;4969040;28;20459;-88
2022/02/21 04:11:19;;;;;;;2.20;0.80;;;5.50;99.90;;;;;;4961334;29;20461;-88
2022/02/21 04:13:46;;;;;;;1.80;0.80;;;5.40;99.90;;;;;;4960062;28;20482;-89
2022/02/21 04:16:14;;;;;;;0.73;0.50;;;5.40;99.90;;;;;;4964663;29;20445;-88
2022/02/21 04:18:41;;;;;;;1.73;0.80;;;5.40;99.90;;;;;;4967254;28;20512;-89
2022/02/21 04:21:08;;;;;;;2.30;0.80;;;5.30;99.90;;;;;;4965089;28;20455;-89
2022/02/21 04:23:36;;;;;;;5.40;0.90;;;5.20;99.90;;;;;;4979058;28;20844;-89
2022/02/21 04:26:03;;;;;;;1.37;1.13;;;5.20;99.90;;;;;;4966309;28;20518;-90
2022/02/21 04:28:31;;;;;;;2.03;0.73;;;5.20;99.90;;;;;;4959923;28;20458;-89
2022/02/21 04:30:58;;;;;;;4.13;0.87;;;5.20;99.90;;;;;;4959521;29;20448;-89
2022/02/21 04:33:24;;;;;;;2.60;0.53;;;5.20;99.90;;;;;;4970636;28;20824;-90
2022/02/21 04:35:51;;;;;;;3.23;0.80;;;5.20;99.90;;;;;;4986564;28;20458;-87
2022/02/21 04:38:18;;;;;;;3.20;1.10;;;5.20;99.90;;;;;;4978800;28;20483;-88
2022/02/21 04:40:48;;;;;;;3.30;1.03;;;5.30;99.90;;;;;;4981109;28;20461;-88
2022/02/21 04:43:14;;;;;;;5.60;2.70;;;5.20;99.90;;;;;;4968960;28;20878;-88
2022/02/21 04:45:41;;;;;;;2.83;1.07;;;5.30;99.90;;;;;;4960001;29;20448;-88
2022/02/21 04:48:08;;;;;;;3.07;1.23;;;5.20;99.90;;;;;;4972906;28;20459;-88
2022/02/21 04:50:35;;;;;;;3.23;1.30;;;5.30;99.90;;;;;;4983635;28;20455;-88
2022/02/21 04:53:02;;;;;;;2.10;1.40;;;5.30;99.90;;;;;;4998513;28;20449;-88
2022/02/21 04:55:29;;;;;;;2.70;1.30;;;5.30;99.90;;;;;;4991708;28;20466;-88
2022/02/21 04:57:57;;;;;;;3.07;1.40;;;5.40;99.90;;;;;;4992562;28;20961;-88
2022/02/21 05:00:24;;;;;;;3.43;1.30;;;5.40;99.90;;;;;;4979380;28;20538;-88
2022/02/21 05:02:51;;;;;;;3.33;1.13;;;5.50;99.90;;;;;;4978735;28;20454;-89
2022/02/21 05:05:18;;;;;;;4.17;1.30;;;5.50;99.90;;;;;;4983412;28;20476;-89
2022/02/21 05:07:46;;;;;;;4.47;1.80;;;5.50;99.90;;;;;;4966341;28;20460;-88
2022/02/21 05:10:13;;;;;;;8.23;1.57;;;5.50;99.90;;;;;;4959672;28;20991;-89
2022/02/21 05:12:40;;;;;;;4.27;1.30;;;5.60;99.90;;;;;;4960512;28;20452;-89
2022/02/21 05:15:10;;;;;;;2.60;1.53;;;5.60;99.90;;;;;;4980122;28;20482;-89
2022/02/21 05:17:37;;;;;;;3.77;1.50;;;5.70;99.90;;;;;;4987943;28;20452;-89
2022/02/21 05:20:05;;;;;;;5.40;1.27;;;5.70;99.90;;;;;;4996400;28;20483;-89
2022/02/21 05:22:32;;;;;;;3.03;1.73;;;5.80;99.90;;;;;;4986532;28;20516;-89
2022/02/21 05:24:59;;;;;;;3.43;1.30;;;5.90;99.90;;;;;;4988946;23;20506;-88
2022/02/21 05:27:26;;;;;;;9.70;2.60;;;5.90;99.90;;;;;;4968208;28;20455;-89
2022/02/21 05:29:53;;;;;;;3.73;1.37;;;6.00;99.90;;;;;;4980088;28;20496;-90
2022/02/21 05:32:21;;;;;;;6.73;2.40;;;6.00;99.90;;;;;;4980518;28;20440;-92
2022/02/21 05:34:48;;;;;;;6.27;2.03;;;6.00;99.90;;;;;;4963757;28;20940;-89
2022/02/21 05:37:15;;;;;;;14.23;2.30;;;6.10;99.90;;;;;;4961020;29;20457;-89
2022/02/21 05:39:41;;;;;;;6.83;2.30;;;6.20;99.70;;;;;;4966648;29;20484;-89
2022/02/21 05:42:08;;;;;;;8.47;2.60;;;6.20;98.60;;;;;;4958760;29;20496;-89
2022/02/21 05:44:35;;;;;;;5.60;1.60;;;6.30;97.40;;;;;;4957702;28;20482;-90
2022/02/21 05:47:10;;;;;;;7.87;2.17;;;6.40;97.70;;;;;;4950524;29;20521;-89
2022/02/21 05:49:39;;;;;;;7.83;2.67;;;6.40;97.20;;;;;;4954762;29;20453;-88
2022/02/21 05:52:06;;;;;;;9.70;2.43;;;6.40;97.40;;;;;;4947830;29;20460;-89
2022/02/21 05:54:33;;;;;;;6.03;2.70;;;6.40;97.90;;;;;;4942678;29;20470;-89
2022/02/21 05:57:00;;;;;;;8.40;2.20;;;6.50;98.30;;;;;;4952135;29;20459;-89
2022/02/21 05:59:27;;;;;;;8.30;2.00;;;6.50;97.40;;;;;;4960512;28;20539;-90
2022/02/21 06:01:53;;;;;;;6.80;2.40;;;6.50;97.40;;;;;;4951113;29;20462;-87
2022/02/21 06:04:20;;;;;;;8.13;2.20;;;6.60;96.30;;;;;;4943843;29;20464;-88
2022/02/21 06:06:48;;;;;;;6.03;2.10;;;6.60;96.80;;;;;;4956087;29;20459;-87
2022/02/21 06:09:15;;;;;;;4.13;2.00;;;6.70;97.00;;;;;;4952602;29;20460;-88
2022/02/21 06:11:42;;;;;;;8.00;2.27;;;6.70;96.50;;;;;;4944160;29;20448;-90
2022/02/21 06:14:09;;;;;;;7.47;2.00;;;6.60;96.50;;;;;;4958542;28;20452;-88
2022/02/21 06:16:35;;;;;;;9.57;3.30;;;6.70;96.50;;;;;;4974637;28;20464;-89
2022/02/21 06:19:02;;;;;;;5.93;2.27;;;6.70;96.00;;;;;;4977497;28;20496;-89
2022/02/21 06:21:29;;;;;;;6.57;2.60;;;6.70;96.00;;;;;;4965633;29;20812;-88
2022/02/21 06:23:57;;;;;;;8.20;2.23;;;6.70;95.90;;;;;;4959350;29;20449;-89
2022/02/21 06:26:24;;;;;;;4.50;1.90;;;6.70;95.80;;;;;;4960008;28;20484;-89
2022/02/21 06:28:52;;;;;;;9.03;2.47;;;6.70;95.70;;;;;;4960616;29;20449;-89
2022/02/21 06:31:20;;;;;;;6.83;1.77;;;6.70;96.00;;;;;;4965425;29;20520;-89
2022/02/21 06:33:47;;;;;;;7.00;2.10;;;6.70;95.00;;;;;;4965874;29;20444;-89
2022/02/21 06:36:13;;;;;;;7.27;3.10;;;6.70;94.90;;;;;;4967418;28;20496;-89
2022/02/21 06:38:41;;;;;;;5.43;2.80;;;6.70;94.80;;;;;;4960610;29;20461;-89
2022/02/21 06:41:10;;;;;;;8.43;1.73;;;6.70;95.00;;;;;;4957814;29;21132;-89
2022/02/21 06:43:37;;;;;;;7.83;2.23;;;6.80;94.90;;;;;;4941444;29;20465;-90
2022/02/21 06:46:04;;;;;;;4.77;1.47;;;6.80;94.90;;;;;;4953904;28;20489;-88
2022/02/21 06:48:31;;;;;;;8.77;2.70;;;6.80;94.70;;;;;;4968446;29;20520;-89
2022/02/21 06:50:57;;;;;;;7.20;2.00;;;6.90;94.60;;;;;;4947560;29;20461;-89
2022/02/21 06:53:24;;;;;;;8.93;2.33;;;6.90;94.70;;;;;;4938889;29;20438;-89
2022/02/21 06:55:54;;;;;;;7.87;1.90;;;6.80;94.40;;;;;;4953511;28;20469;-90
2022/02/21 06:58:25;;;;;;;7.43;2.13;;;6.80;94.90;;;;;;4958254;29;20464;-89
2022/02/21 07:00:56;;;;;;;17.40;2.37;;;6.80;94.80;;;;;;4957842;29;20481;-89
2022/02/21 07:03:37;;;;;;;6.27;2.47;;;6.80;94.80;;;;;;4951773;29;20464;-89
2022/02/21 07:06:08;;;;;;;5.87;1.53;;;6.80;94.20;;;;;;4939445;29;20485;-89
2022/02/21 07:08:41;;;;;;;8.00;2.07;;;6.70;94.00;;;;;;4939251;29;20937;-89
2022/02/21 07:11:09;;;;;;;4.33;2.50;;;6.70;93.70;;;;;;4946819;29;20438;-89
2022/02/21 07:13:40;;;;;;;7.67;2.10;;;6.70;94.10;;;;;;4951930;28;20478;-89
2022/02/21 07:16:16;;;;;;;11.20;3.10;;;6.70;94.00;;;;;;4960378;28;20534;-89
2022/02/21 07:18:43;;;;;;;5.47;2.23;;;6.60;92.80;;;;;;4975879;28;20444;-89
2022/02/21 07:21:14;;;;;;;5.37;1.80;;;6.60;92.30;;;;;;4958462;28;20477;-90
2022/02/21 07:23:48;;;;;;;13.03;2.73;;;6.60;92.60;;;;;;4951604;29;20444;-88
2022/02/21 07:26:22;;;;;;;10.30;1.70;;;6.50;92.10;;;;;;4949363;28;20515;-90
2022/02/21 07:29:01;;;;;;;9.90;2.50;;;6.50;91.80;;;;;;4945209;28;20471;-90
2022/02/21 07:31:28;;;;;;;6.00;1.90;;;6.50;91.50;;;;;;4943367;29;20433;-89
2022/02/21 07:33:55;;;;;;;9.30;3.37;;;6.50;91.50;;;;;;4936977;29;20450;-88
2022/02/21 07:36:25;;;;;;;8.67;3.50;;;6.50;92.00;;;;;;4950465;29;20473;-89
2022/02/21 07:38:52;;;;;;;8.93;2.37;;;6.60;91.40;;;;;;4953610;29;20449;-89
2022/02/21 07:41:19;;;;;;;6.43;2.30;;;6.60;91.50;;;;;;4952407;29;20446;-89
2022/02/21 07:43:46;;;;;;;11.00;2.77;;;6.60;91.20;;;;;;4949910;29;21379;-89
2022/02/21 07:46:14;;;;;;;9.63;2.40;;;6.70;91.20;;;;;;4941358;29;20473;-89
2022/02/21 07:48:41;;;;;;;8.87;3.33;;;6.70;91.30;;;;;;4943248;29;20471;-90
2022/02/21 07:51:08;;;;;;;17.43;2.80;;;6.70;91.00;;;;;;4937999;29;20442;-89
2022/02/21 07:53:35;;;;;;;7.10;3.63;;;6.80;90.50;;;;;;4942208;29;20449;-90
2022/02/21 07:56:02;;;;;;;9.60;3.23;;;6.80;90.30;;;;;;4951753;29;20458;-88
2022/02/21 07:58:29;;;;;;;13.50;4.33;;;6.90;90.10;;;;;;4927146;29;20458;-78
2022/02/21 08:00:55;;;;;;;9.13;2.90;;;6.90;90.70;;;;;;4930827;29;20492;-78
2022/02/21 08:03:24;;;;;;;9.33;2.73;;;7.20;91.00;;;;;;4931407;29;20482;-87
2022/02/21 08:05:55;;;;;;;10.83;3.00;;;7.20;88.90;;;;;;4938544;29;20476;-86
2022/02/21 08:08:21;;;;;;;8.40;2.43;;;7.20;87.70;;;;;;4932765;29;20458;-87
2022/02/21 08:10:49;;;;;;;8.37;3.00;;;7.30;88.30;;;;;;4933237;29;20536;-87
2022/02/21 08:13:16;;;;;;;9.87;3.33;;;7.30;88.50;;;;;;4932561;29;20533;-87
2022/02/21 08:15:43;;;;;;;9.20;3.17;;;7.40;89.20;;;;;;4941923;29;20477;-86
2022/02/21 08:18:10;;;;;;;6.43;2.40;;;7.40;89.20;;;;;;4942852;29;20450;-86
2022/02/21 08:20:38;;;;;;;5.63;2.23;;;7.60;88.20;;;;;;4940551;29;20473;-87
2022/02/21 08:23:05;;;;;;;8.83;2.13;;;7.60;88.20;;;;;;4933784;29;20828;-84
2022/02/21 08:25:32;;;;;;;7.37;2.50;;;7.80;88.70;;;;;;4935061;29;20554;-86
2022/02/21 08:27:59;;;;;;;8.07;2.50;;;8.00;87.10;;;;;;4947687;29;20484;-86
2022/02/21 08:30:26;;;;;;;9.20;3.27;;;8.20;86.30;;;;;;4946064;29;20447;-86
2022/02/21 08:32:53;;;;;;;18.80;3.20;;;8.40;86.10;;;;;;4933210;29;20976;-86
2022/02/21 08:35:20;;;;;;;5.27;2.70;;;8.50;86.10;;;;;;4951486;28;20478;-86
2022/02/21 08:37:49;;;;;;;12.10;2.90;;;8.60;85.10;;;;;;4948521;29;20449;-86
2022/02/21 08:40:18;;;;;;;6.93;2.67;;;8.70;84.20;;;;;;4962601;29;20481;-86
2022/02/21 08:42:45;;;;;;;13.67;2.93;;;9.30;84.00;;;;;;4951490;29;20477;-86
2022/02/21 08:45:13;;;;;;;7.47;2.53;;;10.30;80.40;;;;;;4958947;28;20469;-86
2022/02/21 08:47:40;;;;;;;6.70;2.77;;;11.30;77.00;;;;;;4946185;29;20547;-87
2022/02/21 08:50:10;;;;;;;11.30;2.97;;;12.10;73.80;;;;;;4939208;29;20441;-87
2022/02/21 08:52:40;;;;;;;10.43;3.47;;;12.50;70.70;;;;;;4946998;29;20562;-87
2022/02/21 08:55:09;;;;;;;9.00;2.83;;;13.30;70.70;;;;;;4949064;29;20469;-87
2022/02/21 08:57:36;;;;;;;3.70;1.77;;;13.60;68.00;;;;;;4959482;29;20465;-86
2022/02/21 09:00:05;;;;;;;9.63;2.83;;;12.10;67.20;;;;;;4968859;28;20500;-86
2022/02/21 09:02:31;;;;;;;5.93;2.67;;;11.90;69.70;;;;;;4941385;29;20461;-86
2022/02/21 09:04:58;;;;;;;10.20;3.60;;;12.00;70.40;;;;;;4955795;28;20484;-86
2022/02/21 09:07:25;;;;;;;11.67;2.47;;;11.80;70.30;;;;;;4957780;29;20457;-86
2022/02/21 09:09:52;;;;;;;6.87;2.20;;;11.20;70.50;;;;;;4957131;29;20456;-85
2022/02/21 09:12:20;;;;;;;9.13;3.10;;;11.30;73.00;;;;;;4966531;29;20422;-86
2022/02/21 09:14:50;;;;;;;14.20;4.20;;;10.80;71.70;;;;;;4958588;28;20473;-86
2022/02/21 09:17:17;;;;;;;13.90;3.87;;;10.70;73.60;;;;;;4944033;29;20856;-86
2022/02/21 09:19:45;;;;;;;10.20;2.60;;;10.60;73.20;;;;;;4942525;29;20541;-86
2022/02/21 09:22:12;;;;;;;7.70;2.03;;;10.80;74.50;;;;;;4946019;29;20453;-86
2022/02/21 09:24:38;;;;;;;6.50;2.13;;;10.50;73.50;;;;;;4938266;29;20528;-88
2022/02/21 09:27:05;;;;;;;13.60;3.70;;;10.40;74.10;;;;;;4964248;29;20455;-87
2022/02/21 09:29:35;;;;;;;6.40;2.50;;;10.50;73.40;;;;;;4970945;29;20449;-87
2022/02/21 09:32:01;;;;;;;5.63;2.47;;;10.70;74.00;;;;;;4940318;29;20457;-87
2022/02/21 09:34:28;;;;;;;7.43;2.97;;;10.90;72.70;;;;;;4938411;29;21047;-87
2022/02/21 09:36:55;;;;;;;7.23;2.07;;;10.80;73.60;;;;;;4939644;29;20464;-86
2022/02/21 09:39:22;;;;;;;7.03;2.60;;;10.40;73.30;;;;;;4946722;29;20821;-87
2022/02/21 09:41:50;;;;;;;11.73;2.30;;;10.30;76.00;;;;;;4965380;29;20472;-87
2022/02/21 09:44:17;;;;;;;6.83;2.20;;;10.30;75.60;;;;;;4969446;28;20457;-87
2022/02/21 09:46:48;;;;;;;8.93;2.57;;;10.90;75.50;;;;;;4955077;29;20516;-86
2022/02/21 09:49:16;;;;;;;7.53;2.50;;;11.70;74.10;;;;;;4946753;29;20488;-87
2022/02/21 09:51:43;;;;;;;4.97;2.30;;;12.40;71.70;;;;;;4944349;29;20454;-86
2022/02/21 09:54:12;;;;;;;5.90;1.90;;;12.30;68.30;;;;;;4939848;28;20460;-86
2022/02/21 09:56:40;;;;;;;5.60;2.63;;;11.30;66.80;;;;;;4957622;29;20457;-86
2022/02/21 09:59:08;;;;;;;5.80;2.00;;;11.50;70.10;;;;;;4947282;29;20565;-86
2022/02/21 10:01:37;;;;;;;6.33;1.70;;;12.10;68.00;;;;;;4955713;29;20484;-86
2022/02/21 10:04:06;;;;;;;8.53;2.80;;;11.80;66.80;;;;;;4950207;29;20461;-86
2022/02/21 10:06:33;;;;;;;6.60;2.47;;;12.00;68.00;;;;;;4938106;29;20450;-87
2022/02/21 10:09:49;;;;;;;6.17;2.07;;;12.80;68.40;;;;;;4944237;29;20463;-90
2022/02/21 10:15:40;;;;;;;11.80;3.10;;;11.60;66.10;;;;;;4824276;29;20501;-91
2022/02/21 10:24:20;;;;;;;6.37;2.40;;;12.70;60.80;;;;;;4902895;29;20461;-89
2022/02/21 10:27:22;;;;;;;7.13;2.37;;;13.10;64.70;;;;;;4941662;29;20458;-89
2022/02/21 10:30:10;;;;;;;4.33;2.20;;;14.90;61.60;;;;;;4882001;29;20497;-89
2022/02/21 10:33:26;;;;;;;5.23;2.03;;;16.10;57.80;;;;;;4951587;29;20518;-90
2022/02/21 10:36:36;;;;;;;10.07;4.20;;;16.70;54.70;;;;;;4921659;29;20512;-90
2022/02/21 10:39:05;;;;;;;8.53;3.03;;;16.20;53.80;;;;;;4944946;29;20582;-90
2022/02/21 10:41:49;;;;;;;10.13;2.93;;;15.90;53.50;;;;;;4954272;29;20473;-91
2022/02/21 10:44:23;;;;;;;6.57;2.00;;;15.00;54.00;;;;;;4966790;28;20464;-91
2022/02/21 10:47:05;;;;;;;5.57;2.40;;;15.00;53.90;;;;;;4960489;29;20488;-89
2022/02/21 10:49:34;;;;;;;5.37;2.30;;;16.10;54.00;;;;;;4961599;29;20459;-90
2022/02/21 10:52:03;;;;;;;10.80;2.07;;;15.40;54.40;;;;;;4950902;29;20516;-90
2022/02/21 10:54:31;;;;;;;6.83;2.77;;;14.30;54.00;;;;;;4944153;29;20475;-90
2022/02/21 10:56:59;;;;;;;9.67;3.00;;;14.10;55.10;;;;;;4942273;29;20458;-91
2022/02/21 10:59:29;;;;;;;6.17;2.27;;;15.30;55.60;;;;;;4958657;28;20426;-91
2022/02/21 11:01:57;;;;;;;8.07;2.37;;;15.70;53.40;;;;;;4965040;29;20471;-90
2022/02/21 11:04:25;;;;;;;6.30;3.37;;;16.30;52.40;;;;;;4975655;28;20839;-91
2022/02/21 11:07:06;;;;;;;4.77;2.23;;;17.20;51.50;;;;;;4969844;28;20488;-91
2022/02/21 11:09:33;;;;;;;6.57;3.50;;;16.40;49.30;;;;;;4947819;29;20434;-90
2022/02/21 11:12:03;;;;;;;6.87;2.80;;;17.30;50.90;;;;;;4944916;29;20522;-91
2022/02/21 11:14:32;;;;;;;5.63;2.27;;;17.30;48.10;;;;;;4953916;28;20467;-90
2022/02/21 11:17:00;;;;;;;5.50;2.03;;;16.50;49.00;;;;;;4952736;29;20484;-90
2022/02/21 11:19:28;;;;;;;4.00;1.60;;;14.90;49.80;;;;;;4939299;29;20472;-91
2022/02/21 11:21:55;;;;;;;8.13;2.17;;;14.20;52.50;;;;;;4936989;29;20478;-91
2022/02/21 11:24:52;;;;;;;5.90;1.97;;;13.40;53.60;;;;;;4937815;29;20453;-89
2022/02/21 11:27:34;;;;;;;4.10;2.00;;;11.70;56.20;;;;;;4961441;29;20456;-90
2022/02/21 11:30:08;;;;;;;8.47;4.20;;;11.20;59.40;;;;;;4945045;29;20476;-90
2022/02/21 11:32:35;;;;;;;5.60;2.13;;;11.10;61.70;;;;;;4949329;29;20673;-90
2022/02/21 11:35:24;;;;;;;3.10;1.60;;;11.10;62.80;;;;;;4941538;29;20470;-90
2022/02/21 11:37:51;;;;;;;8.20;2.20;;;10.20;66.10;;;;;;4940387;29;20836;-90
2022/02/21 11:40:25;;;;;;;5.90;1.63;;;10.00;69.10;;;;;;4962271;29;20456;-91
2022/02/21 11:45:44;;;;;;;6.53;2.13;;;10.00;78.00;;;;;;4953043;28;20479;-91
2022/02/21 11:48:13;;;;;;;6.37;2.53;;;9.70;82.90;;;;;;4961668;29;20444;-90
2022/02/21 11:50:40;;;;;;;7.50;2.90;;;9.00;88.20;;;;;;4958886;29;20517;-90
2022/02/21 11:53:27;;;;;;;3.97;1.50;;;9.30;90.00;;;;;;4946213;29;20541;-90
2022/02/21 11:55:56;;;;;;;3.43;1.67;;;11.40;85.50;;;;;;4948513;29;20474;-90
2022/02/21 11:58:43;;;;;;;5.37;1.60;;;12.30;76.30;;;;;;4958448;29;20461;-91
2022/02/21 12:01:12;;;;;;;5.87;2.97;;;13.50;74.20;;;;;;4945060;29;20570;-90
2022/02/21 12:03:39;;;;;;;6.77;2.30;;;13.30;70.50;;;;;;4942656;29;20450;-90
2022/02/21 12:06:29;;;;;;;6.37;2.30;;;12.60;70.80;;;;;;4953569;29;20565;-91
2022/02/21 12:09:02;;;;;;;4.37;2.10;;;11.60;69.90;;;;;;4964614;29;20457;-90
2022/02/21 12:11:30;;;;;;;9.33;3.57;;;11.00;71.10;;;;;;4962050;29;20452;-90
2022/02/21 12:14:17;;;;;;;8.93;2.70;;;11.40;72.90;;;;;;4969028;29;20456;-92
2022/02/21 12:17:14;;;;;;;7.13;2.97;;;11.40;68.50;;;;;;4927012;28;20482;-91
2022/02/21 12:19:55;;;;;;;10.07;4.20;;;11.60;69.00;;;;;;4868141;29;20463;-90
2022/02/21 12:22:23;;;;;;;7.63;3.03;;;11.70;67.10;;;;;;4950027;29;20476;-90
2022/02/21 12:25:10;;;;;;;3.00;2.63;;;11.70;66.40;;;;;;4976750;28;20495;-92
2022/02/21 12:27:54;;;;;;;6.20;3.40;;;12.00;64.40;;;;;;4944905;29;20493;-90
2022/02/21 12:30:36;;;;;;;7.30;2.27;;;12.40;59.20;;;;;;4929997;29;20452;-90
2022/02/21 12:33:05;;;;;;;5.70;1.90;;;11.60;59.40;;;;;;4943102;29;20550;-89
2022/02/21 12:35:44;;;;;;;3.70;2.03;;;11.20;60.10;;;;;;4954992;28;20469;-90
2022/02/21 12:38:13;;;;;;;6.97;3.27;;;10.80;60.80;;;;;;4940930;29;20453;-91
2022/02/21 12:40:54;;;;;;;6.20;2.57;;;10.80;62.10;;;;;;4953528;29;20449;-91
2022/02/21 12:43:22;;;;;;;4.37;2.20;;;10.70;61.10;;;;;;4963312;29;20464;-90
2022/02/21 12:45:49;;;;;;;5.53;3.00;;;10.60;59.80;;;;;;4953149;28;20561;-90
2022/02/21 12:48:18;;;;;;;5.47;3.00;;;10.60;59.90;;;;;;4943896;29;20449;-92
2022/02/21 12:50:45;;;;;;;6.20;2.20;;;10.60;60.30;;;;;;4957976;29;20459;-91
2022/02/21 12:53:18;;;;;;;4.10;1.70;;;10.70;60.80;;;;;;4959522;29;20461;-91
2022/02/21 12:55:47;;;;;;;3.10;1.40;;;10.80;61.30;;;;;;4970834;28;20517;-90
2022/02/21 12:58:13;;;;;;;4.67;1.33;;;10.10;60.00;;;;;;4957962;28;20464;-91
2022/02/21 13:00:44;;;;;;;2.90;1.53;;;9.80;62.70;;;;;;4954845;28;20448;-91
2022/02/21 13:04:03;;;;;;;6.33;1.70;;;9.70;63.90;;;;;;4963221;28;20462;-91
2022/02/21 13:13:23;;;;;;;10.00;1.53;;;8.70;76.40;;;;;;4842721;29;20497;-90
2022/02/21 13:16:18;;;;;;;3.53;1.93;;;8.80;74.90;;;;;;4881178;29;20862;-90
2022/02/21 13:19:04;;;;;;;5.90;1.57;;;9.10;75.30;;;;;;4874139;29;20449;-90
2022/02/21 13:21:42;;;;;;;4.93;1.13;;;9.20;74.20;;;;;;4934588;29;20477;-91